Au Gres, Michigan
Current Conditions -  °F | °C
As of 6:14 AM on Sunday 23 Nov 2014 (Local Time) from KOSC Reporting Station
Haze Haze  
Wind Chill: 42°   Ceiling: 300
Heat Index: 42°   Visibility: 1.5mi
Dew Point: 42°   Wind: 0mph
Humidity: 100%   Direction: NA
Pressure: 29.83"   Gusts: NA
Location:  44.05°N, 83.7°W
Report Text: KOSC 231114Z AUTO 00000KT 1 1/2SM BR OVC003 05/05 A2983 RMK AO2 T00560056
Loading
Personal Weather Stations






























Interactive Weather Map New forecast layout! Learn more

10-Day Weather Forecast

Advertisements
Track Severe Weather on mobile